createdAt,value
2019-03-31T00:00:13.301Z,11.864624
2019-03-31T00:01:13.409Z,11.864624
2019-03-31T00:02:13.542Z,11.864624
2019-03-31T00:03:13.655Z,11.834412
2019-03-31T00:04:13.799Z,11.81427
2019-03-31T00:05:13.933Z,11.804199
2019-03-31T00:06:14.056Z,11.784058
2019-03-31T00:07:14.184Z,11.784058
2019-03-31T00:08:14.271Z,11.773987
2019-03-31T00:09:14.372Z,11.763916
2019-03-31T00:10:14.478Z,11.733704
2019-03-31T00:11:14.586Z,11.733704
2019-03-31T00:12:14.705Z,11.703491
2019-03-31T00:13:14.820Z,11.68335
2019-03-31T00:14:14.923Z,11.632996
2019-03-31T00:15:15.030Z,11.632996
2019-03-31T00:16:15.136Z,11.622925
2019-03-31T00:17:15.300Z,11.592712
2019-03-31T00:18:15.393Z,11.582642
2019-03-31T00:19:15.494Z,11.552429
2019-03-31T00:20:15.586Z,11.522217
2019-03-31T00:21:15.684Z,11.512146
2019-03-31T00:22:15.816Z,11.492004
2019-03-31T00:23:15.915Z,11.451721
2019-03-31T00:24:16.017Z,11.44165
2019-03-31T00:25:16.127Z,11.43158
2019-03-31T00:26:16.235Z,11.381226
2019-03-31T00:27:16.384Z,11.381226
2019-03-31T00:28:16.365Z,11.351013
2019-03-31T00:29:16.488Z,11.340942
2019-03-31T00:30:16.573Z,11.340942
2019-03-31T00:31:22.199Z,11.351013
2019-03-31T00:32:16.770Z,11.330872
2019-03-31T00:33:16.756Z,11.330872
2019-03-31T00:34:16.886Z,11.330872
2019-03-31T00:35:17.005Z,11.31073
2019-03-31T00:36:17.114Z,11.330872
2019-03-31T00:37:17.248Z,11.31073
2019-03-31T00:38:17.276Z,11.330872
2019-03-31T00:39:17.446Z,11.31073
2019-03-31T00:40:17.556Z,11.330872
2019-03-31T00:41:17.694Z,11.351013
2019-03-31T00:42:17.806Z,11.371155
2019-03-31T00:43:17.955Z,11.401367
2019-03-31T00:44:18.066Z,11.411438
2019-03-31T00:45:18.176Z,11.43158
2019-03-31T00:46:19.277Z,11.44165
2019-03-31T00:47:18.371Z,11.44165
2019-03-31T00:48:18.594Z,11.44165
2019-03-31T00:49:18.530Z,11.451721
2019-03-31T00:50:18.627Z,11.451721
2019-03-31T00:51:18.763Z,11.481934
2019-03-31T00:52:18.879Z,11.481934
2019-03-31T00:53:18.893Z,11.451721
2019-03-31T00:54:19.003Z,11.451721
2019-03-31T00:55:19.103Z,11.451721
2019-03-31T00:56:19.208Z,11.451721
2019-03-31T00:57:19.327Z,11.451721
2019-03-31T00:58:19.337Z,11.43158
2019-03-31T00:59:19.340Z,11.371155
2019-03-31T01:00:19.445Z,11.330872
2019-03-31T01:01:19.547Z,11.31073
2019-03-31T01:02:20.606Z,11.230164
2019-03-31T01:03:19.749Z,11.199951
2019-03-31T01:04:19.858Z,11.149597
2019-03-31T01:05:19.961Z,11.099243
2019-03-31T01:06:20.066Z,11.048889
2019-03-31T01:07:20.206Z,10.998535
2019-03-31T01:08:20.358Z,10.93811
2019-03-31T01:09:20.468Z,10.887756
2019-03-31T01:10:20.573Z,10.837402
2019-03-31T01:11:20.705Z,10.817261
2019-03-31T01:12:20.740Z,10.797119
2019-03-31T01:13:20.746Z,10.766907
2019-03-31T01:14:20.868Z,10.766907
2019-03-31T01:15:20.998Z,10.756836
2019-03-31T01:16:21.108Z,10.756836
2019-03-31T01:17:21.220Z,10.716553
2019-03-31T01:18:21.215Z,10.68634
2019-03-31T01:19:21.312Z,10.67627
2019-03-31T01:20:21.444Z,10.646057
2019-03-31T01:21:21.534Z,10.615845
2019-03-31T01:22:21.634Z,10.605774
2019-03-31T01:23:21.626Z,10.565491
2019-03-31T01:24:21.722Z,10.505066
2019-03-31T01:25:21.854Z,10.484924
2019-03-31T01:26:22.011Z,10.454712
2019-03-31T01:27:22.110Z,10.454712
2019-03-31T01:28:22.109Z,10.4245
2019-03-31T01:29:22.219Z,10.414429
2019-03-31T01:30:22.355Z,10.384216
2019-03-31T01:31:22.475Z,10.333862
2019-03-31T01:32:22.565Z,10.283508
2019-03-31T01:33:22.699Z,10.253296
2019-03-31T01:34:22.806Z,10.213013
2019-03-31T01:35:22.924Z,10.172729
2019-03-31T01:36:23.032Z,10.132446
2019-03-31T01:37:23.148Z,10.122375
2019-03-31T01:38:23.278Z,10.092163
2019-03-31T01:39:23.397Z,10.061951
2019-03-31T01:40:23.502Z,10.061951
2019-03-31T01:41:23.670Z,10.001526
2019-03-31T01:42:23.726Z,9.991455
2019-03-31T01:43:23.885Z,9.971313
2019-03-31T01:44:23.998Z,9.951172
2019-03-31T01:45:24.137Z,9.900818
2019-03-31T01:46:24.240Z,9.880676
2019-03-31T01:47:24.347Z,9.840393
2019-03-31T01:48:24.938Z,9.820251
2019-03-31T01:49:24.599Z,9.80011
2019-03-31T01:50:24.704Z,9.739685
2019-03-31T01:51:24.807Z,9.699402
2019-03-31T01:52:24.925Z,9.659119
2019-03-31T01:53:25.058Z,9.618835
2019-03-31T01:54:25.132Z,9.588623
2019-03-31T01:55:25.238Z,9.558411
2019-03-31T01:56:25.349Z,9.518127
2019-03-31T01:57:25.496Z,9.487915
2019-03-31T01:58:25.636Z,9.467773
2019-03-31T01:59:25.729Z,9.437561
2019-03-31T02:00:25.861Z,9.387207
2019-03-31T02:01:25.968Z,9.356995
2019-03-31T02:02:26.074Z,9.336853
2019-03-31T02:03:26.204Z,9.29657
2019-03-31T02:04:26.306Z,9.266357
2019-03-31T02:05:26.414Z,9.205933
2019-03-31T02:06:26.518Z,9.155579
2019-03-31T02:07:26.614Z,9.125366
2019-03-31T02:08:26.750Z,9.085083
2019-03-31T02:09:26.883Z,9.075012
2019-03-31T02:10:27.002Z,9.034729
2019-03-31T02:11:27.116Z,9.024658
2019-03-31T02:12:27.217Z,8.994446
2019-03-31T02:13:27.342Z,8.974304
2019-03-31T02:14:27.457Z,8.974304
2019-03-31T02:15:27.554Z,8.954163
2019-03-31T02:16:27.676Z,8.954163
2019-03-31T02:17:27.780Z,8.964233
2019-03-31T02:18:27.901Z,8.954163
2019-03-31T02:19:28.006Z,8.954163
2019-03-31T02:20:28.102Z,8.934021
2019-03-31T02:21:28.224Z,8.934021
2019-03-31T02:22:28.321Z,8.934021
2019-03-31T02:23:28.455Z,8.934021
2019-03-31T02:24:28.560Z,8.974304
2019-03-31T02:25:28.672Z,8.994446
2019-03-31T02:26:28.795Z,9.024658
2019-03-31T02:27:28.904Z,9.054871
2019-03-31T02:28:29.028Z,9.085083
2019-03-31T02:29:29.141Z,9.115295
2019-03-31T02:30:29.234Z,9.125366
2019-03-31T02:31:29.328Z,9.155579
2019-03-31T02:32:29.450Z,9.17572
2019-03-31T02:33:29.601Z,9.185791
2019-03-31T02:34:29.709Z,9.205933
2019-03-31T02:35:29.808Z,9.216003
2019-03-31T02:36:29.914Z,9.236145
2019-03-31T02:37:30.026Z,9.266357
2019-03-31T02:38:30.198Z,9.266357
2019-03-31T02:39:30.168Z,9.266357
2019-03-31T02:40:30.272Z,9.266357
2019-03-31T02:41:30.377Z,9.266357
2019-03-31T02:42:30.477Z,9.236145
2019-03-31T02:43:30.953Z,9.205933
2019-03-31T02:44:30.648Z,9.17572
2019-03-31T02:45:30.752Z,9.125366
2019-03-31T02:46:30.855Z,9.085083
2019-03-31T02:47:30.967Z,9.034729
2019-03-31T02:48:31.078Z,8.994446
2019-03-31T02:49:31.066Z,8.964233
2019-03-31T02:50:31.160Z,8.954163
2019-03-31T02:51:31.263Z,8.934021
2019-03-31T02:52:31.365Z,8.92395
2019-03-31T02:53:31.485Z,8.92395
2019-03-31T02:54:31.622Z,8.903809
2019-03-31T02:55:31.739Z,8.903809
2019-03-31T02:56:31.841Z,8.92395
2019-03-31T02:57:31.938Z,8.903809
2019-03-31T02:58:32.034Z,8.92395
2019-03-31T02:59:32.174Z,8.92395
2019-03-31T03:00:32.266Z,8.934021
2019-03-31T03:01:32.384Z,8.934021
2019-03-31T03:02:41.123Z,8.954163
2019-03-31T03:03:32.554Z,8.964233
2019-03-31T03:04:32.553Z,8.954163
2019-03-31T03:05:32.656Z,8.934021
2019-03-31T03:06:32.753Z,8.934021
2019-03-31T03:07:32.866Z,8.934021
2019-03-31T03:08:32.974Z,8.934021
2019-03-31T03:09:33.140Z,8.92395
2019-03-31T03:10:33.232Z,8.893738
2019-03-31T03:11:33.337Z,8.873596
2019-03-31T03:12:33.468Z,8.843384
2019-03-31T03:13:33.584Z,8.823242
2019-03-31T03:14:33.592Z,8.813171
2019-03-31T03:15:33.690Z,8.823242
2019-03-31T03:16:33.813Z,8.843384
2019-03-31T03:17:33.937Z,8.823242
2019-03-31T03:18:34.037Z,8.823242
2019-03-31T03:19:34.170Z,8.843384
2019-03-31T03:20:34.274Z,8.863525
2019-03-31T03:21:34.364Z,8.873596
2019-03-31T03:22:34.476Z,8.893738
2019-03-31T03:23:34.585Z,8.893738
2019-03-31T03:24:34.605Z,8.92395
2019-03-31T03:25:34.719Z,8.92395
2019-03-31T03:26:35.808Z,8.903809
2019-03-31T03:27:34.900Z,8.903809
2019-03-31T03:28:35.019Z,8.893738
2019-03-31T03:29:35.092Z,8.873596
2019-03-31T03:30:35.256Z,8.863525
2019-03-31T03:31:35.292Z,8.823242
2019-03-31T03:32:35.402Z,8.823242
2019-03-31T03:33:36.485Z,8.823242
2019-03-31T03:34:35.633Z,8.813171
2019-03-31T03:35:35.756Z,8.823242
2019-03-31T03:36:35.864Z,8.79303
2019-03-31T03:37:35.962Z,8.79303
2019-03-31T03:38:36.079Z,8.772888
2019-03-31T03:39:36.220Z,8.772888
2019-03-31T03:40:36.327Z,8.772888
2019-03-31T03:41:36.423Z,8.782959
2019-03-31T03:42:36.537Z,8.782959
2019-03-31T03:43:53.928Z,8.79303
2019-03-31T03:44:37.782Z,8.79303
2019-03-31T03:45:36.888Z,8.79303
2019-03-31T03:46:36.994Z,8.782959
2019-03-31T03:47:37.096Z,8.79303
2019-03-31T03:48:38.048Z,8.79303
2019-03-31T03:49:37.363Z,8.782959
2019-03-31T03:50:37.497Z,8.813171
2019-03-31T03:51:37.652Z,8.823242
2019-03-31T03:52:37.748Z,8.843384
2019-03-31T03:53:37.871Z,8.843384
2019-03-31T03:54:38.007Z,8.863525
2019-03-31T03:55:38.110Z,8.863525
2019-03-31T03:56:38.215Z,8.873596
2019-03-31T03:57:38.313Z,8.893738
2019-03-31T03:58:38.418Z,8.903809
2019-03-31T03:59:38.586Z,8.934021
2019-03-31T04:00:38.691Z,8.934021
2019-03-31T04:01:38.800Z,8.954163
2019-03-31T04:02:38.916Z,8.934021
2019-03-31T04:03:39.021Z,8.954163
2019-03-31T04:04:39.156Z,8.964233
2019-03-31T04:05:39.263Z,8.964233
2019-03-31T04:06:39.366Z,8.954163
2019-03-31T04:07:39.460Z,8.964233
2019-03-31T04:08:39.572Z,8.964233
2019-03-31T04:09:39.685Z,8.964233
2019-03-31T04:10:39.789Z,8.974304
2019-03-31T04:11:39.893Z,8.964233
2019-03-31T04:12:39.998Z,8.974304
2019-03-31T04:13:40.144Z,8.974304
2019-03-31T04:14:40.263Z,8.964233
2019-03-31T04:15:40.385Z,8.964233
2019-03-31T04:16:40.472Z,8.964233
2019-03-31T04:17:40.591Z,8.964233
2019-03-31T04:18:40.706Z,8.964233
2019-03-31T04:19:40.841Z,8.954163
2019-03-31T04:20:40.999Z,8.954163
2019-03-31T04:21:41.059Z,8.934021
2019-03-31T04:22:41.174Z,8.934021
2019-03-31T04:23:41.271Z,8.954163
2019-03-31T04:24:41.406Z,8.92395
2019-03-31T04:25:41.508Z,8.934021
2019-03-31T04:26:41.627Z,8.934021
2019-03-31T04:27:41.753Z,8.92395
2019-03-31T04:28:41.868Z,8.92395
2019-03-31T04:29:42.013Z,8.903809
2019-03-31T04:30:42.117Z,8.903809
2019-03-31T04:31:42.230Z,8.893738
2019-03-31T04:32:42.327Z,8.873596
2019-03-31T04:33:50.988Z,8.863525
2019-03-31T04:34:42.531Z,8.863525
2019-03-31T04:35:42.643Z,8.863525
2019-03-31T04:36:42.750Z,8.863525
2019-03-31T04:37:42.855Z,8.843384
2019-03-31T04:38:42.962Z,8.843384
2019-03-31T04:39:44.103Z,8.823242
2019-03-31T04:40:43.206Z,8.823242
2019-03-31T04:41:43.306Z,8.863525
2019-03-31T04:42:43.410Z,8.843384
2019-03-31T04:43:43.523Z,8.843384
2019-03-31T04:44:43.716Z,8.843384
2019-03-31T04:45:43.666Z,8.823242
2019-03-31T04:46:43.770Z,8.843384
2019-03-31T04:47:43.888Z,8.843384
2019-03-31T04:48:44.014Z,8.823242
2019-03-31T04:49:44.421Z,8.823242
2019-03-31T04:50:44.196Z,8.823242
2019-03-31T04:51:44.291Z,8.813171
2019-03-31T04:52:44.445Z,8.813171
2019-03-31T04:53:44.566Z,8.79303
2019-03-31T04:54:44.716Z,8.79303
2019-03-31T04:55:44.805Z,8.813171
2019-03-31T04:56:44.913Z,8.813171
2019-03-31T04:57:45.025Z,8.813171
2019-03-31T04:58:45.123Z,8.79303
2019-03-31T04:59:45.272Z,8.79303
2019-03-31T05:00:45.385Z,8.813171
2019-03-31T05:01:45.489Z,8.813171
2019-03-31T05:02:45.582Z,8.823242
2019-03-31T05:03:45.695Z,8.79303
2019-03-31T05:04:46.813Z,8.772888
2019-03-31T05:05:45.901Z,8.772888
2019-03-31T05:06:46.007Z,8.772888
2019-03-31T05:07:46.164Z,8.772888
2019-03-31T05:08:46.314Z,8.742676
2019-03-31T05:09:46.456Z,8.742676
2019-03-31T05:10:46.507Z,8.742676
2019-03-31T05:11:46.647Z,8.722534
2019-03-31T05:12:46.695Z,8.712463
2019-03-31T05:13:46.689Z,8.712463
2019-03-31T05:14:46.679Z,8.682251
2019-03-31T05:15:46.699Z,8.641968
2019-03-31T05:16:46.717Z,8.641968
2019-03-31T05:17:46.790Z,8.631897
2019-03-31T05:18:46.894Z,8.601685
2019-03-31T05:19:46.948Z,8.561401
2019-03-31T05:20:47.052Z,8.531189
2019-03-31T05:21:47.119Z,8.521118
2019-03-31T05:22:47.162Z,8.490906
2019-03-31T05:23:47.190Z,8.490906
2019-03-31T05:24:47.236Z,8.490906
2019-03-31T05:25:47.331Z,8.490906
2019-03-31T05:26:47.393Z,8.490906
2019-03-31T05:27:47.498Z,8.490906
2019-03-31T05:28:47.553Z,8.490906
2019-03-31T05:29:47.601Z,8.460693
2019-03-31T05:30:47.714Z,8.460693
2019-03-31T05:31:47.850Z,8.460693
2019-03-31T05:32:47.863Z,8.460693
2019-03-31T05:33:47.919Z,8.490906
2019-03-31T05:34:47.964Z,8.490906
2019-03-31T05:35:48.004Z,8.500977
2019-03-31T05:36:48.091Z,8.521118
2019-03-31T05:37:51.009Z,8.531189
2019-03-31T05:38:48.267Z,8.521118
2019-03-31T05:39:48.316Z,8.500977
2019-03-31T05:40:48.447Z,8.521118
2019-03-31T05:41:48.525Z,8.531189
2019-03-31T05:42:48.567Z,8.531189
2019-03-31T05:43:48.613Z,8.54126
2019-03-31T05:44:49.619Z,8.54126
2019-03-31T05:45:52.164Z,8.54126
2019-03-31T05:46:48.841Z,8.521118
2019-03-31T05:47:48.918Z,8.521118
2019-03-31T05:48:48.986Z,8.521118
2019-03-31T05:49:49.041Z,8.500977
2019-03-31T05:50:49.145Z,8.500977
2019-03-31T05:51:49.198Z,8.500977
2019-03-31T05:52:49.242Z,8.500977
2019-03-31T05:53:49.311Z,8.500977
2019-03-31T05:54:49.354Z,8.500977
2019-03-31T05:55:49.441Z,8.490906
2019-03-31T05:56:49.485Z,8.460693
2019-03-31T05:57:49.537Z,8.460693
2019-03-31T05:58:49.581Z,8.460693
2019-03-31T05:59:49.636Z,8.500977
2019-03-31T06:00:49.717Z,8.500977
2019-03-31T06:01:49.774Z,8.490906
2019-03-31T06:02:49.813Z,8.490906
2019-03-31T06:03:49.853Z,8.490906
2019-03-31T06:04:49.923Z,8.450623
2019-03-31T06:05:50.009Z,8.460693
2019-03-31T06:06:50.038Z,8.490906
2019-03-31T06:07:50.113Z,8.500977
2019-03-31T06:08:50.192Z,8.500977
2019-03-31T06:09:50.268Z,8.490906
2019-03-31T06:10:50.350Z,8.500977
2019-03-31T06:11:53.159Z,8.521118
2019-03-31T06:12:50.481Z,8.500977
2019-03-31T06:13:50.558Z,8.490906
2019-03-31T06:14:50.601Z,8.450623
2019-03-31T06:15:50.673Z,8.440552
2019-03-31T06:16:50.731Z,8.42041
2019-03-31T06:17:50.777Z,8.410339
2019-03-31T06:18:50.827Z,8.410339
2019-03-31T06:19:50.888Z,8.410339
2019-03-31T06:20:51.000Z,8.390198
2019-03-31T06:21:51.081Z,8.42041
2019-03-31T06:22:51.120Z,8.440552
2019-03-31T06:23:51.164Z,8.460693
2019-03-31T06:24:51.207Z,8.460693
2019-03-31T06:25:51.317Z,8.490906
2019-03-31T06:26:51.365Z,8.490906
2019-03-31T06:27:51.408Z,8.500977
2019-03-31T06:28:51.466Z,8.521118
2019-03-31T06:29:51.527Z,8.521118
2019-03-31T06:30:51.647Z,8.54126
2019-03-31T06:31:51.756Z,8.561401
2019-03-31T06:32:55.139Z,8.54126
2019-03-31T06:33:51.854Z,8.54126
2019-03-31T06:34:51.897Z,8.561401
2019-03-31T06:35:51.946Z,8.571472
2019-03-31T06:36:52.063Z,8.601685
2019-03-31T06:37:52.127Z,8.641968
2019-03-31T06:38:52.160Z,8.662109
2019-03-31T06:39:52.239Z,8.641968
2019-03-31T06:40:52.283Z,8.682251
2019-03-31T06:41:52.393Z,8.662109
2019-03-31T06:42:52.437Z,8.662109
2019-03-31T06:43:52.529Z,8.662109
2019-03-31T06:44:52.581Z,8.641968
2019-03-31T06:45:52.626Z,8.662109
2019-03-31T06:46:52.702Z,8.641968
2019-03-31T06:47:52.829Z,8.641968
2019-03-31T06:48:52.880Z,8.631897
2019-03-31T06:49:52.925Z,8.631897
2019-03-31T06:50:52.963Z,8.601685
2019-03-31T06:51:53.081Z,8.591614
2019-03-31T06:52:53.127Z,8.561401
2019-03-31T06:53:53.178Z,8.561401
2019-03-31T06:54:53.231Z,8.54126
2019-03-31T06:55:53.276Z,8.531189
2019-03-31T06:56:53.399Z,8.490906
2019-03-31T06:57:53.459Z,8.460693
2019-03-31T06:58:53.494Z,8.440552
2019-03-31T06:59:53.546Z,8.410339
2019-03-31T07:00:53.632Z,8.359985
2019-03-31T07:01:53.746Z,8.349915
2019-03-31T07:02:53.870Z,8.279419
2019-03-31T07:03:53.824Z,8.269348
2019-03-31T07:05:00.681Z,8.259277
2019-03-31T07:05:53.891Z,8.259277
2019-03-31T07:06:53.996Z,8.259277
2019-03-31T07:07:54.039Z,8.279419
2019-03-31T07:08:54.079Z,8.279419
2019-03-31T07:09:54.117Z,8.279419
2019-03-31T07:10:54.170Z,8.309631
2019-03-31T07:11:54.295Z,8.380127
2019-03-31T07:12:54.374Z,8.410339
2019-03-31T07:13:54.416Z,8.440552
2019-03-31T07:14:54.457Z,8.460693
2019-03-31T07:15:54.505Z,8.490906
2019-03-31T07:16:54.568Z,8.531189
2019-03-31T07:17:54.610Z,8.571472
2019-03-31T07:18:54.667Z,8.631897
2019-03-31T07:19:54.725Z,8.682251
2019-03-31T07:20:54.804Z,8.742676
2019-03-31T07:21:54.870Z,8.79303
2019-03-31T07:22:54.914Z,8.893738
2019-03-31T07:23:54.960Z,8.964233
2019-03-31T07:24:55.025Z,8.974304
2019-03-31T07:25:55.090Z,9.024658
2019-03-31T07:26:55.161Z,9.054871
2019-03-31T07:27:55.215Z,9.115295
2019-03-31T07:28:55.317Z,9.075012
2019-03-31T07:29:55.380Z,9.085083
2019-03-31T07:30:55.457Z,9.075012
2019-03-31T07:31:55.552Z,9.115295
2019-03-31T07:32:55.599Z,9.155579
2019-03-31T07:33:55.646Z,9.236145
2019-03-31T07:34:56.679Z,9.256287
2019-03-31T07:35:56.686Z,9.266357
2019-03-31T07:36:55.752Z,9.326782
2019-03-31T07:37:55.793Z,9.387207
2019-03-31T07:38:55.929Z,9.437561
2019-03-31T07:39:55.957Z,9.437561
2019-03-31T07:40:56.118Z,9.477844
2019-03-31T07:41:57.183Z,9.477844
2019-03-31T07:42:56.074Z,9.508057
2019-03-31T07:43:56.050Z,9.54834
2019-03-31T07:44:56.098Z,9.54834
2019-03-31T07:45:56.170Z,9.558411
2019-03-31T07:46:56.238Z,9.558411
2019-03-31T07:47:56.343Z,9.558411
2019-03-31T07:48:56.384Z,9.538269
2019-03-31T07:49:56.431Z,9.487915
2019-03-31T07:50:56.486Z,9.518127
2019-03-31T07:51:56.593Z,9.54834
2019-03-31T07:52:56.642Z,9.618835
2019-03-31T07:53:56.691Z,9.719543
2019-03-31T07:54:56.834Z,9.729614
2019-03-31T07:55:56.880Z,9.729614
2019-03-31T07:56:56.959Z,9.759827
2019-03-31T07:57:57.026Z,9.850464
2019-03-31T07:58:57.108Z,9.910889
2019-03-31T07:59:57.126Z,9.971313
2019-03-31T08:00:57.171Z,9.971313
2019-03-31T08:01:57.246Z,9.941101
2019-03-31T08:03:00.107Z,10.001526
2019-03-31T08:03:57.451Z,10.102234
2019-03-31T08:04:57.525Z,10.152588
2019-03-31T08:05:57.622Z,10.132446
2019-03-31T08:06:57.630Z,10.132446
2019-03-31T08:07:57.697Z,10.102234
2019-03-31T08:08:57.782Z,10.213013
2019-03-31T08:09:57.798Z,10.30365
2019-03-31T08:10:57.864Z,10.494995
2019-03-31T08:11:57.874Z,10.706482
2019-03-31T08:12:58.025Z,10.857544
2019-03-31T08:13:58.035Z,10.917969
2019-03-31T08:14:58.098Z,11.038818
2019-03-31T08:15:58.155Z,11.099243
2019-03-31T08:16:58.206Z,11.199951
2019-03-31T08:17:58.315Z,11.340942
2019-03-31T08:18:58.357Z,11.522217
2019-03-31T08:19:58.361Z,11.925049
2019-03-31T08:20:58.365Z,12.025757
2019-03-31T08:21:58.380Z,12.630005
2019-03-31T08:22:58.465Z,12.881775
2019-03-31T08:23:58.624Z,13.264465
2019-03-31T08:24:58.621Z,13.274536
2019-03-31T08:25:58.658Z,13.19397
2019-03-31T08:26:58.682Z,12.801208
2019-03-31T08:27:58.799Z,12.579651
2019-03-31T08:28:58.932Z,12.358093
2019-03-31T08:30:00.933Z,12.146606
2019-03-31T08:30:59.019Z,12.045898
2019-03-31T08:31:59.054Z,11.94519
2019-03-31T08:32:59.142Z,11.914978
2019-03-31T08:33:59.291Z,11.854553
2019-03-31T08:34:59.338Z,11.632996
2019-03-31T08:35:59.415Z,11.481934
2019-03-31T08:36:59.416Z,11.270447
2019-03-31T08:37:59.495Z,11.199951
2019-03-31T08:38:59.511Z,11.159668
2019-03-31T08:39:59.610Z,11.069031
2019-03-31T08:40:59.672Z,11.008606
2019-03-31T08:41:59.798Z,11.008606
2019-03-31T08:42:59.883Z,11.069031
2019-03-31T08:43:59.960Z,11.129456
2019-03-31T08:44:59.961Z,11.17981
2019-03-31T08:45:59.959Z,11.119385
2019-03-31T08:46:59.951Z,11.129456
2019-03-31T08:47:59.962Z,11.220093
2019-03-31T08:49:00.038Z,11.17981
2019-03-31T08:50:01.970Z,11.330872
2019-03-31T08:51:00.076Z,11.44165
2019-03-31T08:52:00.202Z,11.492004
2019-03-31T08:53:00.324Z,11.371155
2019-03-31T08:54:00.370Z,11.381226
2019-03-31T08:55:00.434Z,11.44165
2019-03-31T08:56:00.451Z,11.492004
2019-03-31T08:57:00.497Z,11.552429
2019-03-31T08:58:00.546Z,11.602783
2019-03-31T08:59:00.620Z,11.632996
2019-03-31T09:00:00.611Z,11.68335
2019-03-31T09:01:00.766Z,11.653137
2019-03-31T09:02:03.235Z,11.622925
2019-03-31T09:03:00.918Z,11.481934
2019-03-31T09:04:01.003Z,11.351013
2019-03-31T09:05:01.057Z,11.330872
2019-03-31T09:06:02.503Z,11.300659
2019-03-31T09:07:01.164Z,11.340942
2019-03-31T09:08:01.247Z,11.351013
2019-03-31T09:09:01.318Z,11.340942
2019-03-31T09:10:01.307Z,11.381226
2019-03-31T09:11:01.363Z,11.5625
2019-03-31T09:12:01.435Z,11.68335
2019-03-31T09:13:01.593Z,11.713562
2019-03-31T09:14:01.646Z,11.713562
2019-03-31T09:15:01.701Z,11.653137
2019-03-31T09:16:01.755Z,11.602783
2019-03-31T09:17:01.803Z,11.512146
2019-03-31T09:18:01.871Z,11.381226
2019-03-31T09:19:01.917Z,11.119385
2019-03-31T09:20:01.971Z,11.008606
2019-03-31T09:21:02.018Z,10.968323
2019-03-31T09:22:02.067Z,10.897827
2019-03-31T09:23:02.146Z,10.867615
2019-03-31T09:24:02.180Z,10.837402
2019-03-31T09:25:02.240Z,10.857544
2019-03-31T09:26:02.300Z,10.817261
2019-03-31T09:27:02.347Z,10.797119
2019-03-31T09:28:02.418Z,10.817261
2019-03-31T09:29:02.473Z,10.857544
2019-03-31T09:30:02.519Z,10.867615
2019-03-31T09:31:02.570Z,10.867615
2019-03-31T09:32:02.624Z,10.887756
2019-03-31T09:33:02.761Z,10.917969
2019-03-31T09:34:02.805Z,10.897827
2019-03-31T09:35:02.850Z,10.948181
2019-03-31T09:36:15.297Z,10.998535
2019-03-31T09:37:03.939Z,11.008606
2019-03-31T09:38:03.000Z,10.998535
2019-03-31T09:39:03.046Z,10.998535
2019-03-31T09:40:03.100Z,11.008606
2019-03-31T09:41:03.161Z,10.978394
2019-03-31T09:42:03.214Z,10.917969
2019-03-31T09:43:03.303Z,10.897827
2019-03-31T09:44:03.349Z,10.917969
2019-03-31T09:45:03.395Z,10.978394
2019-03-31T09:46:03.460Z,10.998535
2019-03-31T09:47:03.527Z,11.048889
2019-03-31T09:48:03.610Z,11.119385
2019-03-31T09:49:03.739Z,11.220093
2019-03-31T09:50:03.739Z,11.270447
2019-03-31T09:51:04.858Z,11.300659
2019-03-31T09:52:04.917Z,11.340942
2019-03-31T09:53:04.169Z,11.381226
2019-03-31T09:54:04.039Z,11.411438
2019-03-31T09:55:04.063Z,11.492004
2019-03-31T09:56:04.118Z,11.602783
2019-03-31T09:57:04.165Z,11.673279
2019-03-31T09:58:04.209Z,11.773987
2019-03-31T09:59:04.288Z,11.834412
2019-03-31T10:00:04.294Z,11.884766
2019-03-31T10:01:07.682Z,11.955261
2019-03-31T10:02:04.490Z,11.965332
2019-03-31T10:03:04.551Z,12.06604
2019-03-31T10:04:04.641Z,12.166748
2019-03-31T10:05:04.691Z,12.257385
2019-03-31T10:06:10.849Z,12.287598
2019-03-31T10:07:05.882Z,12.297668
2019-03-31T10:08:04.957Z,12.297668
2019-03-31T10:09:05.895Z,12.368164
2019-03-31T10:10:04.932Z,12.478943
2019-03-31T10:11:04.970Z,12.56958
2019-03-31T10:12:05.001Z,12.529297
2019-03-31T10:13:05.081Z,12.529297
2019-03-31T10:14:05.143Z,12.56958
2019-03-31T10:15:05.287Z,12.630005
2019-03-31T10:16:05.298Z,12.529297
2019-03-31T10:17:05.331Z,12.509155
2019-03-31T10:18:05.413Z,12.529297
2019-03-31T10:19:05.572Z,12.539368
2019-03-31T10:20:05.663Z,12.539368
2019-03-31T10:21:05.713Z,12.509155
2019-03-31T10:22:05.752Z,12.428589
2019-03-31T10:23:05.801Z,12.388306
2019-03-31T10:24:05.895Z,12.327881
2019-03-31T10:25:05.940Z,12.277527
2019-03-31T10:26:06.982Z,12.166748
2019-03-31T10:27:06.985Z,12.136536
2019-03-31T10:28:06.057Z,12.106323
2019-03-31T10:29:06.101Z,12.106323
2019-03-31T10:30:06.224Z,12.116394
2019-03-31T10:31:06.377Z,12.096252
2019-03-31T10:32:06.468Z,12.146606
2019-03-31T10:33:06.523Z,12.227173
2019-03-31T10:34:06.624Z,12.257385
2019-03-31T10:35:06.687Z,12.176819
2019-03-31T10:36:06.728Z,12.06604
2019-03-31T10:37:06.767Z,11.995544
2019-03-31T10:38:06.829Z,11.965332
2019-03-31T10:39:07.914Z,11.965332
2019-03-31T10:40:06.972Z,11.965332
2019-03-31T10:41:06.992Z,11.985474
2019-03-31T10:42:07.077Z,11.955261
2019-03-31T10:43:07.122Z,11.864624
2019-03-31T10:44:07.192Z,11.81427
2019-03-31T10:45:07.236Z,11.804199
2019-03-31T10:46:07.283Z,11.784058
2019-03-31T10:47:07.349Z,11.784058
2019-03-31T10:48:19.481Z,11.81427
2019-03-31T10:49:08.418Z,11.81427
2019-03-31T10:50:07.464Z,11.854553
2019-03-31T10:51:07.519Z,11.834412
2019-03-31T10:52:07.586Z,11.784058
2019-03-31T10:53:07.670Z,11.804199
2019-03-31T10:54:07.741Z,11.864624
2019-03-31T10:55:07.786Z,11.925049
2019-03-31T10:56:07.834Z,11.985474
2019-03-31T10:57:07.882Z,11.965332
2019-03-31T10:58:07.918Z,11.955261
2019-03-31T10:59:08.024Z,11.965332
2019-03-31T11:00:08.095Z,11.985474
2019-03-31T11:01:08.144Z,12.015686
2019-03-31T11:02:08.181Z,12.015686
2019-03-31T11:03:08.247Z,11.965332
2019-03-31T11:04:08.315Z,11.955261
2019-03-31T11:05:08.362Z,11.894836
2019-03-31T11:06:08.442Z,11.925049
2019-03-31T11:07:08.498Z,11.94519
2019-03-31T11:08:08.564Z,11.985474
2019-03-31T11:09:08.656Z,12.015686
2019-03-31T11:10:08.698Z,11.965332
2019-03-31T11:11:08.751Z,11.834412
2019-03-31T11:12:08.799Z,11.81427
2019-03-31T11:13:08.848Z,11.884766
2019-03-31T11:14:08.929Z,11.955261
2019-03-31T11:15:08.976Z,11.94519
2019-03-31T11:16:09.051Z,11.925049
2019-03-31T11:17:09.157Z,11.854553
2019-03-31T11:18:09.215Z,11.854553
2019-03-31T11:19:09.272Z,11.884766
2019-03-31T11:20:09.269Z,11.884766
2019-03-31T11:21:09.306Z,11.955261
2019-03-31T11:22:09.298Z,12.015686
2019-03-31T11:23:09.380Z,12.116394
2019-03-31T11:24:09.511Z,12.166748
2019-03-31T11:25:20.145Z,12.257385
2019-03-31T11:26:10.557Z,12.388306
2019-03-31T11:27:09.572Z,12.428589
2019-03-31T11:28:09.625Z,12.428589
2019-03-31T11:29:09.784Z,12.388306
2019-03-31T11:30:09.813Z,12.44873
2019-03-31T11:31:09.964Z,12.468872
2019-03-31T11:32:10.020Z,12.539368
2019-03-31T11:33:10.096Z,12.549438
2019-03-31T11:34:10.313Z,12.609863
2019-03-31T11:35:10.316Z,12.680359
2019-03-31T11:36:10.346Z,12.831421
2019-03-31T11:37:13.624Z,13.032837
2019-03-31T11:38:10.360Z,13.204041